Time;durP1;ratioP1;P1;durP2;ratioP2;P2;SDS_P1;SDS_P2;PMS_P1;PMS_P2;Temp;Humidity;BMP_temperature;BMP_pressure;BME280_temperature;BME280_humidity;BME280_pressure;Samples;Min_cycle;Max_cycle;Signal;HPM_P1;HPM_P2
2022/04/07 00:00:06;;;;;;;20.00;2.30;;;;;;;8.16;67.94;97871.25;5117665;28;20396;-44
2022/04/07 00:02:32;;;;;;;13.93;2.00;;;;;;;8.15;67.63;97882.97;5117953;28;20382;-44
2022/04/07 00:04:57;;;;;;;19.63;2.58;;;;;;;8.09;67.82;97881.28;5117398;28;20069;-44
2022/04/07 00:07:23;;;;;;;20.35;2.60;;;;;;;8.09;67.57;97892.78;5117644;28;20035;-46
2022/04/07 00:09:49;;;;;;;22.27;2.63;;;;;;;8.04;67.63;97862.47;5099431;28;20032;-44
2022/04/07 00:12:14;;;;;;;12.82;2.30;;;;;;;8.03;67.56;97880.38;5099744;28;20061;-44
2022/04/07 00:14:40;;;;;;;19.83;3.03;;;;;;;8.06;67.68;97881.75;5117687;28;20464;-44
2022/04/07 00:17:06;;;;;;;24.98;2.58;;;;;;;8.11;67.64;97873.81;5099437;28;20083;-46
2022/04/07 00:19:32;;;;;;;22.75;2.53;;;;;;;8.13;67.76;97875.22;5117677;28;20380;-44
2022/04/07 00:21:59;;;;;;;17.83;2.63;;;;;;;8.22;67.93;97874.81;5117098;28;20031;-46
2022/04/07 00:24:25;;;;;;;17.27;2.60;;;;;;;8.25;68.37;97898.41;5117196;28;20031;-44
2022/04/07 00:26:51;;;;;;;16.92;3.03;;;;;;;8.29;68.88;97873.59;5117362;28;20043;-44
2022/04/07 00:29:17;;;;;;;10.60;2.05;;;;;;;8.25;69.35;97840.38;5117396;28;20023;-47
2022/04/07 00:31:43;;;;;;;16.90;2.80;;;;;;;8.32;70.36;97872.28;5098915;28;20027;-47
2022/04/07 00:34:11;;;;;;;15.98;2.47;;;;;;;8.30;71.28;97867.22;5117434;28;20063;-45
2022/04/07 00:36:36;;;;;;;18.88;2.83;;;;;;;8.23;73.44;97887.94;5117416;28;20099;-44
2022/04/07 00:39:03;;;;;;;15.10;2.38;;;;;;;8.17;75.00;97877.41;5117301;28;20130;-44
2022/04/07 00:41:29;;;;;;;19.20;2.40;;;;;;;8.01;74.90;97852.28;5117657;28;20452;-47
2022/04/07 00:43:55;;;;;;;22.10;3.10;;;;;;;7.97;76.78;97859.13;5117151;28;20118;-46
2022/04/07 00:46:21;;;;;;;21.23;2.88;;;;;;;7.82;77.30;97844.50;5116322;28;20031;-44
2022/04/07 00:48:46;;;;;;;18.27;3.15;;;;;;;7.87;78.28;97863.25;5117438;28;20451;-45
2022/04/07 00:51:12;;;;;;;15.90;2.45;;;;;;;7.79;78.04;97860.97;5098374;28;20034;-44
2022/04/07 00:53:39;;;;;;;11.27;1.67;;;;;;;7.70;77.71;97881.91;5098792;28;20092;-44
2022/04/07 00:56:07;;;;;;;8.75;1.60;;;;;;;7.52;75.33;97896.28;5099032;28;20102;-45
2022/04/07 00:58:33;;;;;;;4.38;0.80;;;;;;;7.29;76.27;97896.34;5116822;28;20062;-44
2022/04/07 01:00:59;;;;;;;2.33;0.80;;;;;;;7.05;78.31;97891.03;5115982;28;20456;-44
2022/04/07 01:03:26;;;;;;;5.45;0.80;;;;;;;6.84;78.30;97902.34;5116860;28;20039;-44
2022/04/07 01:05:51;;;;;;;4.35;0.80;;;;;;;6.67;78.14;97870.22;5116054;28;20059;-44
2022/04/07 01:08:17;;;;;;;4.97;0.80;;;;;;;6.65;78.44;97882.94;5116434;28;20067;-43
2022/04/07 01:10:45;;;;;;;3.67;0.60;;;;;;;6.61;79.50;97871.13;5116463;28;20073;-44
2022/04/07 01:13:11;;;;;;;4.68;0.70;;;;;;;6.49;78.94;97866.59;5098085;28;20028;-44
2022/04/07 01:15:38;;;;;;;4.07;0.60;;;;;;;6.45;79.08;97891.31;5116443;28;20081;-45
2022/04/07 01:18:04;;;;;;;3.83;0.80;;;;;;;6.40;79.56;97841.34;5116342;28;20094;-47
2022/04/07 01:20:30;;;;;;;5.53;0.85;;;;;;;6.47;79.37;97854.56;5116597;28;20027;-48
2022/04/07 01:22:56;;;;;;;4.35;0.77;;;;;;;6.45;79.38;97846.78;5117022;28;20024;-44
2022/04/07 01:25:25;;;;;;;3.35;0.95;;;;;;;6.36;77.27;97819.66;5116487;28;20447;-45
2022/04/07 01:27:52;;;;;;;5.82;0.93;;;;;;;6.45;76.85;97820.13;5115770;28;20036;-44
2022/04/07 01:30:18;;;;;;;4.20;0.68;;;;;;;6.49;77.63;97834.63;5097841;28;20410;-45
2022/04/07 01:32:51;;;;;;;2.15;0.73;;;;;;;6.45;76.76;97816.66;5097410;28;20088;-44
2022/04/07 01:35:17;;;;;;;3.65;0.50;;;;;;;6.51;74.93;97811.19;5115483;28;20039;-44
2022/04/07 01:37:46;;;;;;;1.95;0.57;;;;;;;6.54;75.95;97802.75;5115456;28;20051;-44
2022/04/07 01:40:17;;;;;;;2.88;0.70;;;;;;;6.52;75.58;97791.50;5097595;28;20046;-46
2022/04/07 01:42:45;;;;;;;4.32;0.57;;;;;;;6.49;74.60;97780.50;5097894;28;20053;-45
2022/04/07 01:45:12;;;;;;;3.40;0.80;;;;;;;6.54;73.32;97785.94;5116044;28;20383;-45
2022/04/07 01:47:41;;;;;;;2.50;0.40;;;;;;;6.55;71.91;97776.88;5115660;28;20038;-47
2022/04/07 01:50:09;;;;;;;1.38;0.40;;;;;;;6.55;72.42;97767.03;5080843;28;20028;-45
2022/04/07 01:52:37;;;;;;;1.83;0.60;;;;;;;6.54;70.94;97735.28;5115980;28;20365;-44
2022/04/07 01:55:03;;;;;;;2.40;0.68;;;;;;;6.57;70.22;97761.47;5115862;28;20035;-45
2022/04/07 01:57:31;;;;;;;1.83;0.70;;;;;;;6.60;68.41;97713.00;5097167;28;20020;-44
2022/04/07 01:59:58;;;;;;;3.63;0.60;;;;;;;6.61;68.24;97714.59;5115847;28;20027;-44
2022/04/07 02:02:24;;;;;;;2.45;0.50;;;;;;;6.61;68.17;97711.13;5115813;28;20047;-45
2022/04/07 02:04:54;;;;;;;0.63;0.30;;;;;;;6.63;67.85;97677.03;5115559;28;20039;-45
2022/04/07 02:07:20;;;;;;;1.48;0.20;;;;;;;6.65;67.72;97662.44;5115617;28;20414;-45
2022/04/07 02:09:46;;;;;;;2.17;0.52;;;;;;;6.67;67.88;97713.69;5115318;28;20092;-45
2022/04/07 02:12:12;;;;;;;1.05;0.52;;;;;;;6.73;66.26;97664.72;5097142;28;20027;-44
2022/04/07 02:14:38;;;;;;;2.25;0.63;;;;;;;6.79;63.44;97637.09;5115369;28;20027;-45
2022/04/07 02:17:04;;;;;;;2.38;1.08;;;;;;;6.83;61.00;97658.75;5115364;28;20038;-45
2022/04/07 02:19:31;;;;;;;3.75;0.30;;;;;;;6.96;60.78;97684.34;5079951;28;20035;-44
2022/04/07 02:21:56;;;;;;;3.30;0.60;;;;;;;6.97;62.02;97661.97;5115377;28;20102;-45
2022/04/07 02:24:22;;;;;;;3.25;0.47;;;;;;;6.98;61.67;97666.22;5115329;28;20154;-45
2022/04/07 02:26:48;;;;;;;3.33;0.60;;;;;;;6.95;60.81;97650.72;5097013;28;20082;-45
2022/04/07 02:29:13;;;;;;;1.77;0.30;;;;;;;6.92;61.14;97645.84;5114842;28;20106;-44
2022/04/07 02:31:39;;;;;;;3.33;0.73;;;;;;;6.88;61.81;97644.72;5115234;28;20063;-45
2022/04/07 02:34:05;;;;;;;3.47;0.60;;;;;;;7.06;62.93;97655.19;5097084;28;20110;-45
2022/04/07 02:36:31;;;;;;;2.05;0.80;;;;;;;7.05;64.21;97642.09;5096495;28;20498;-45
2022/04/07 02:38:56;;;;;;;3.00;0.70;;;;;;;7.08;64.53;97644.28;5114970;28;20482;-44
2022/04/07 02:41:22;;;;;;;2.58;0.70;;;;;;;7.08;65.82;97647.75;5114703;28;20118;-44
2022/04/07 02:43:50;;;;;;;2.47;0.65;;;;;;;7.09;66.07;97643.22;5114733;28;20038;-45
2022/04/07 02:46:16;;;;;;;4.38;0.63;;;;;;;7.08;67.33;97622.94;5096412;28;20042;-44
2022/04/07 02:48:42;;;;;;;3.33;1.15;;;;;;;7.08;67.39;97662.97;5114515;28;20067;-44
2022/04/07 02:51:08;;;;;;;3.50;0.85;;;;;;;7.04;68.87;97662.63;5114773;28;20114;-44
2022/04/07 02:53:33;;;;;;;6.85;1.13;;;;;;;7.04;69.64;97640.44;5114910;28;20039;-45
2022/04/07 02:55:59;;;;;;;3.40;0.88;;;;;;;7.02;70.40;97661.22;5114572;28;20028;-45
2022/04/07 02:58:25;;;;;;;7.05;1.65;;;;;;;7.00;70.97;97640.13;5114955;28;20115;-45
2022/04/07 03:00:50;;;;;;;8.43;1.80;;;;;;;6.95;71.01;97672.88;5114735;28;20114;-45
2022/04/07 03:03:16;;;;;;;8.85;1.60;;;;;;;6.96;71.00;97655.00;5114437;28;20054;-45
2022/04/07 03:05:42;;;;;;;11.45;1.90;;;;;;;6.95;71.70;97642.72;5114258;28;20058;-44
2022/04/07 03:08:07;;;;;;;7.63;1.27;;;;;;;6.91;71.79;97641.56;5095862;28;20384;-45
2022/04/07 03:10:33;;;;;;;8.45;1.50;;;;;;;6.91;71.70;97655.72;5095829;28;20067;-44
2022/04/07 03:12:59;;;;;;;13.02;1.60;;;;;;;6.88;71.51;97674.06;5114529;28;20076;-44
2022/04/07 03:15:25;;;;;;;13.95;1.98;;;;;;;6.89;71.92;97655.16;5096380;28;20036;-44
2022/04/07 03:17:50;;;;;;;5.93;1.48;;;;;;;6.88;70.89;97629.53;5095893;28;20043;-44
2022/04/07 03:20:16;;;;;;;8.25;1.73;;;;;;;6.84;71.48;97622.25;5114084;28;20020;-44
2022/04/07 03:22:43;;;;;;;15.15;1.90;;;;;;;6.89;70.65;97639.16;5096787;28;20023;-44
2022/04/07 03:25:09;;;;;;;7.97;1.73;;;;;;;6.89;70.85;97617.81;5097100;28;20031;-45
2022/04/07 03:27:35;;;;;;;7.68;2.03;;;;;;;6.86;70.87;97607.63;5114765;28;20030;-44
2022/04/07 03:30:00;;;;;;;11.88;2.45;;;;;;;6.88;71.24;97626.06;5114714;28;20156;-44
2022/04/07 03:32:26;;;;;;;12.18;2.00;;;;;;;6.89;69.97;97620.47;5115170;28;20110;-45
2022/04/07 03:34:52;;;;;;;7.70;1.42;;;;;;;6.85;70.33;97613.97;5079488;28;20478;-46
2022/04/07 03:37:18;;;;;;;11.50;2.33;;;;;;;6.87;70.51;97603.06;5114834;28;20464;-44
2022/04/07 03:39:44;;;;;;;11.50;2.10;;;;;;;6.84;70.14;97607.03;5114154;28;20031;-44
2022/04/07 03:42:10;;;;;;;11.90;2.03;;;;;;;6.74;70.46;97591.69;5114052;28;20111;-44
2022/04/07 03:44:36;;;;;;;10.50;1.88;;;;;;;6.83;70.53;97604.63;5113627;28;20103;-45
2022/04/07 03:47:04;;;;;;;10.43;2.05;;;;;;;6.78;70.89;97605.34;5113863;28;20031;-45
2022/04/07 03:49:30;;;;;;;17.13;2.00;;;;;;;6.75;71.07;97585.28;5114085;28;20035;-45
2022/04/07 03:51:56;;;;;;;12.73;2.25;;;;;;;6.72;70.78;97585.78;5096423;28;20072;-44
2022/04/07 03:54:23;;;;;;;17.98;2.45;;;;;;;6.76;70.92;97594.91;5113836;28;20030;-45
2022/04/07 03:56:48;;;;;;;14.52;1.90;;;;;;;6.71;70.95;97586.81;5113768;28;20049;-45
2022/04/07 03:59:14;;;;;;;16.75;2.10;;;;;;;6.69;70.89;97572.91;5096455;28;20023;-45
2022/04/07 04:01:40;;;;;;;19.33;2.58;;;;;;;6.64;71.18;97562.16;5095828;28;20477;-44
2022/04/07 04:04:06;;;;;;;18.40;2.17;;;;;;;6.60;71.61;97574.34;5113892;28;20399;-44
2022/04/07 04:06:34;;;;;;;13.98;2.20;;;;;;;6.56;71.56;97574.00;5113401;28;20027;-46
2022/04/07 04:08:59;;;;;;;15.20;2.17;;;;;;;6.50;72.11;97559.00;5095785;28;20039;-45
2022/04/07 04:11:25;;;;;;;14.45;2.20;;;;;;;6.50;72.77;97571.47;5095738;28;20027;-50
2022/04/07 04:13:51;;;;;;;21.92;2.67;;;;;;;6.47;72.45;97571.97;5113518;28;20035;-47
2022/04/07 04:16:17;;;;;;;21.70;2.40;;;;;;;6.42;73.01;97574.53;5114234;28;20020;-47
2022/04/07 04:18:43;;;;;;;12.50;2.45;;;;;;;6.37;72.68;97552.09;5095708;28;20031;-45
2022/04/07 04:21:10;;;;;;;17.75;2.60;;;;;;;6.36;72.95;97558.44;5116378;28;20028;-44
2022/04/07 04:23:36;;;;;;;16.98;2.55;;;;;;;6.37;72.75;97554.75;5117326;28;20031;-45
2022/04/07 04:26:04;;;;;;;21.30;2.50;;;;;;;6.32;72.65;97554.66;5117317;28;20596;-45
2022/04/07 04:28:29;;;;;;;21.75;2.40;;;;;;;6.35;72.35;97556.03;5082311;28;20109;-47
2022/04/07 04:30:55;;;;;;;23.27;3.00;;;;;;;6.30;72.94;97550.63;5099121;28;20061;-45
2022/04/07 04:33:21;;;;;;;22.08;2.80;;;;;;;6.03;73.18;97508.53;5099098;28;20089;-46
2022/04/07 04:35:47;;;;;;;16.02;2.58;;;;;;;6.28;73.75;97539.34;5117607;28;20020;-46
2022/04/07 04:38:13;;;;;;;23.95;2.58;;;;;;;6.29;73.50;97528.47;5117639;28;20024;-49
2022/04/07 04:40:39;;;;;;;23.77;2.55;;;;;;;6.22;73.22;97530.47;5117959;28;20038;-48
2022/04/07 04:43:04;;;;;;;18.38;2.30;;;;;;;6.19;73.56;97528.28;5117240;28;20035;-45
2022/04/07 04:45:30;;;;;;;27.70;2.75;;;;;;;6.18;73.96;97521.34;5117447;28;20031;-49
2022/04/07 04:47:56;;;;;;;17.55;3.35;;;;;;;6.15;74.28;97514.63;5098932;28;20042;-48
2022/04/07 04:50:22;;;;;;;16.02;2.50;;;;;;;6.18;74.12;97529.31;5098279;28;20383;-47
2022/04/07 04:52:48;;;;;;;25.80;3.22;;;;;;;6.18;74.20;97513.34;5117126;28;20027;-46
2022/04/07 04:55:14;;;;;;;27.35;4.05;;;;;;;6.17;73.21;97511.75;5116541;28;20052;-48
2022/04/07 04:57:40;;;;;;;15.02;2.38;;;;;;;6.14;73.63;97502.34;5098255;28;20031;-49
2022/04/07 05:00:06;;;;;;;19.23;3.22;;;;;;;6.07;74.47;97482.22;5098606;28;20031;-45
2022/04/07 05:02:32;;;;;;;19.50;2.58;;;;;;;6.10;74.41;97498.53;5098224;28;20030;-49
2022/04/07 05:04:58;;;;;;;18.67;2.25;;;;;;;6.03;73.96;97483.75;5116308;28;20048;-45
2022/04/07 05:07:23;;;;;;;17.23;2.53;;;;;;;6.01;73.85;97471.47;5116931;28;20031;-45
2022/04/07 05:09:55;;;;;;;15.27;2.42;;;;;;;5.97;73.92;97478.31;5116803;28;20051;-44
2022/04/07 05:12:21;;;;;;;23.67;2.85;;;;;;;5.95;73.32;97477.75;5116073;28;20399;-45
2022/04/07 05:14:47;;;;;;;19.77;2.90;;;;;;;5.99;73.14;97486.88;5116640;28;20028;-44
2022/04/07 05:17:12;;;;;;;24.17;2.58;;;;;;;5.99;72.77;97484.22;5116172;28;20106;-45
2022/04/07 05:19:38;;;;;;;23.88;3.00;;;;;;;6.01;72.54;97476.00;5116297;28;20107;-44
2022/04/07 05:22:04;;;;;;;17.10;2.85;;;;;;;5.95;72.75;97487.59;5116221;28;20036;-44
2022/04/07 05:24:30;;;;;;;13.45;1.90;;;;;;;5.95;73.14;97498.22;5116079;28;20420;-45
2022/04/07 05:26:56;;;;;;;15.65;2.83;;;;;;;5.94;73.01;97489.44;5097526;28;20114;-47
2022/04/07 05:29:22;;;;;;;25.25;3.55;;;;;;;5.94;73.55;97505.44;5116307;28;20032;-47
2022/04/07 05:31:47;;;;;;;22.42;3.20;;;;;;;5.93;73.18;97505.66;5080164;28;20027;-46
2022/04/07 05:34:13;;;;;;;14.15;2.42;;;;;;;5.88;73.25;97493.03;5097687;28;20063;-46
2022/04/07 05:36:40;;;;;;;21.15;2.97;;;;;;;5.81;73.52;97487.03;5097708;28;20785;-44
2022/04/07 05:39:06;;;;;;;18.55;2.70;;;;;;;5.83;72.70;97484.94;5115871;28;20489;-47
2022/04/07 05:41:32;;;;;;;20.98;3.05;;;;;;;5.74;72.32;97475.72;5115714;28;20035;-44
2022/04/07 05:43:58;;;;;;;23.50;2.60;;;;;;;5.85;71.83;97493.53;5097563;28;20039;-49
2022/04/07 05:46:23;;;;;;;16.13;2.20;;;;;;;5.88;71.54;97490.38;5115615;28;20024;-47
2022/04/07 05:48:49;;;;;;;14.05;1.98;;;;;;;5.88;71.09;97497.56;5080489;28;20583;-46
2022/04/07 05:51:15;;;;;;;13.73;2.28;;;;;;;5.87;70.07;97485.28;5115936;28;20043;-44
2022/04/07 05:53:41;;;;;;;15.90;2.28;;;;;;;5.84;70.24;97477.78;5097010;28;20036;-45
2022/04/07 05:56:06;;;;;;;14.93;2.20;;;;;;;5.89;69.83;97507.97;5115185;28;20023;-45
2022/04/07 05:58:32;;;;;;;24.95;3.17;;;;;;;5.92;69.38;97499.50;5115244;28;20160;-45
2022/04/07 06:00:58;;;;;;;15.45;2.03;;;;;;;5.92;68.80;97490.72;5116088;28;20039;-46
2022/04/07 06:03:24;;;;;;;15.70;2.03;;;;;;;5.97;68.14;97507.63;5097031;28;20432;-46
2022/04/07 06:05:52;;;;;;;16.48;2.38;;;;;;;5.88;67.89;97485.03;5093690;28;20071;-45
2022/04/07 06:08:20;;;;;;;14.30;2.50;;;;;;;5.99;68.04;97494.88;5093777;28;20032;-44
2022/04/07 06:10:46;;;;;;;13.57;2.00;;;;;;;6.00;68.11;97501.84;5093633;28;20362;-46
2022/04/07 06:13:12;;;;;;;12.45;2.25;;;;;;;6.03;67.51;97495.22;5094951;28;20482;-44
2022/04/07 06:15:39;;;;;;;18.58;2.40;;;;;;;6.04;66.45;97491.50;5095172;28;20078;-45
2022/04/07 06:18:06;;;;;;;12.40;2.53;;;;;;;6.07;66.22;97498.22;5095237;28;20421;-46
2022/04/07 06:20:32;;;;;;;9.13;1.83;;;;;;;5.79;66.83;97457.16;5094020;28;20135;-44
2022/04/07 06:22:58;;;;;;;11.25;1.67;;;;;;;6.08;65.19;97486.53;5095185;28;20111;-45
2022/04/07 06:25:24;;;;;;;6.82;1.63;;;;;;;6.10;65.33;97511.06;5095722;28;20028;-45
2022/04/07 06:27:50;;;;;;;14.00;1.55;;;;;;;6.13;64.04;97497.25;5095084;28;20026;-43
2022/04/07 06:30:18;;;;;;;10.43;1.30;;;;;;;6.15;64.10;97509.31;5095240;28;20039;-44
2022/04/07 06:32:45;;;;;;;11.30;1.50;;;;;;;6.16;63.88;97518.91;5094580;28;20032;-43
2022/04/07 06:35:13;;;;;;;8.30;1.63;;;;;;;6.22;64.49;97497.69;5092926;28;20042;-44
2022/04/07 06:37:53;;;;;;;11.85;1.63;;;;;;;6.20;65.39;97497.91;5094614;28;20134;-43
2022/04/07 06:40:23;;;;;;;13.98;1.80;;;;;;;6.24;64.91;97507.06;5094412;28;20035;-46
2022/04/07 06:42:50;;;;;;;13.02;1.65;;;;;;;6.26;65.22;97520.97;5094468;28;20020;-47
2022/04/07 06:45:16;;;;;;;13.52;1.80;;;;;;;6.17;65.81;97499.22;5092626;28;20032;-44
2022/04/07 06:47:43;;;;;;;18.98;2.20;;;;;;;6.26;64.99;97506.81;5093940;28;20020;-45
2022/04/07 06:50:10;;;;;;;12.45;2.17;;;;;;;6.27;65.42;97517.25;5093964;28;20043;-44
2022/04/07 06:52:36;;;;;;;8.75;2.05;;;;;;;6.28;64.96;97537.53;5093023;28;20020;-44
2022/04/07 06:55:03;;;;;;;10.23;1.90;;;;;;;6.32;64.54;97509.34;5094704;28;20078;-45
2022/04/07 06:57:29;;;;;;;14.63;2.33;;;;;;;6.37;64.40;97530.75;5093072;28;20027;-43
2022/04/07 06:59:55;;;;;;;9.60;1.73;;;;;;;6.34;63.39;97501.91;5110453;28;20024;-43
2022/04/07 07:02:21;;;;;;;11.27;1.70;;;;;;;6.42;63.69;97524.69;5094119;28;20036;-44
2022/04/07 07:04:46;;;;;;;15.07;2.13;;;;;;;6.45;63.58;97534.91;5103025;28;20059;-43
2022/04/07 07:07:13;;;;;;;9.32;1.77;;;;;;;6.42;63.88;97523.91;5114702;28;20119;-44
2022/04/07 07:09:39;;;;;;;19.77;2.15;;;;;;;6.43;63.39;97531.66;5114546;28;20410;-44
2022/04/07 07:12:06;;;;;;;13.35;1.67;;;;;;;6.55;62.98;97540.41;5114458;28;20028;-44
2022/04/07 07:14:31;;;;;;;12.43;2.00;;;;;;;6.56;63.12;97534.03;5114423;28;20024;-44
2022/04/07 07:16:57;;;;;;;8.75;1.35;;;;;;;6.62;62.70;97534.91;5114047;28;20089;-44
2022/04/07 07:19:26;;;;;;;13.13;1.90;;;;;;;6.91;62.09;97554.34;5114617;28;20035;-46
2022/04/07 07:21:53;;;;;;;10.68;1.45;;;;;;;7.07;61.02;97536.72;5114324;28;20054;-43
2022/04/07 07:24:19;;;;;;;17.67;1.88;;;;;;;7.08;61.63;97533.00;5114542;28;20024;-44
2022/04/07 07:26:45;;;;;;;13.23;1.75;;;;;;;7.09;62.20;97523.13;5114176;28;20080;-43
2022/04/07 07:29:11;;;;;;;10.38;1.42;;;;;;;7.07;61.33;97535.91;5095516;28;20485;-45
2022/04/07 07:31:37;;;;;;;8.63;1.35;;;;;;;7.05;61.80;97541.47;5113977;28;20027;-45
2022/04/07 07:34:04;;;;;;;12.70;1.75;;;;;;;7.05;61.16;97530.81;5113935;28;20376;-47
2022/04/07 07:36:30;;;;;;;5.70;1.25;;;;;;;7.17;60.64;97550.22;5113407;28;20020;-45
2022/04/07 07:38:56;;;;;;;6.82;1.15;;;;;;;7.16;61.59;97534.44;5114113;28;20034;-44
2022/04/07 07:41:22;;;;;;;12.18;2.00;;;;;;;7.02;61.10;97517.97;5113894;28;20027;-47
2022/04/07 07:43:47;;;;;;;11.52;1.52;;;;;;;7.03;61.12;97564.13;5114031;28;20031;-44
2022/04/07 07:46:13;;;;;;;7.57;1.48;;;;;;;7.04;61.73;97558.56;5113866;28;20464;-45
2022/04/07 07:48:39;;;;;;;6.22;1.27;;;;;;;7.14;60.80;97528.56;5095598;28;20026;-44
2022/04/07 07:51:05;;;;;;;8.38;1.38;;;;;;;7.29;60.67;97527.97;5114422;28;20444;-44
2022/04/07 07:53:31;;;;;;;11.07;1.55;;;;;;;7.36;60.48;97534.75;5095938;28;20059;-44
2022/04/07 07:55:57;;;;;;;14.52;1.80;;;;;;;7.44;60.15;97533.53;5116864;28;20039;-45
2022/04/07 07:58:23;;;;;;;16.30;1.65;;;;;;;7.74;59.38;97559.84;5099795;28;20028;-44
2022/04/07 08:00:49;;;;;;;10.43;1.75;;;;;;;7.63;59.57;97555.41;5117776;28;20333;-46
2022/04/07 08:03:15;;;;;;;9.77;1.58;;;;;;;7.82;59.77;97557.78;5082650;28;20038;-44
2022/04/07 08:05:41;;;;;;;12.90;2.03;;;;;;;7.89;58.90;97564.59;5117478;28;20112;-43
2022/04/07 08:08:07;;;;;;;8.60;1.70;;;;;;;7.70;59.67;97550.69;5117619;28;20391;-43
2022/04/07 08:10:33;;;;;;;9.85;1.80;;;;;;;7.71;60.37;97568.34;5117772;28;20137;-45
2022/04/07 08:12:59;;;;;;;8.63;1.73;;;;;;;7.73;60.12;97578.78;5117215;28;20031;-44
2022/04/07 08:15:27;;;;;;;7.82;1.85;;;;;;;7.81;59.05;97585.56;5116888;28;20494;-45
2022/04/07 08:17:52;;;;;;;9.07;1.20;;;;;;;8.06;58.14;97633.19;5117670;28;20027;-49
2022/04/07 08:20:19;;;;;;;6.07;1.48;;;;;;;8.02;58.41;97586.63;5117392;28;20034;-44
2022/04/07 08:22:45;;;;;;;10.32;2.33;;;;;;;8.07;58.42;97590.19;5082403;28;20604;-44
2022/04/07 08:25:10;;;;;;;15.73;1.65;;;;;;;7.99;59.07;97617.34;5117360;28;20027;-44
2022/04/07 08:27:36;;;;;;;13.38;1.77;;;;;;;7.89;59.37;97602.00;5098596;28;20055;-44
2022/04/07 08:30:02;;;;;;;6.05;1.45;;;;;;;8.06;58.14;97625.16;5099096;28;20038;-47
2022/04/07 08:32:31;;;;;;;5.35;0.93;;;;;;;8.16;57.72;97617.28;5117707;28;20028;-44
2022/04/07 08:34:58;;;;;;;9.65;1.55;;;;;;;8.27;56.63;97613.69;5117450;28;20050;-44
2022/04/07 08:37:24;;;;;;;6.32;1.33;;;;;;;8.28;56.91;97609.97;5099039;28;20503;-47
2022/04/07 08:39:51;;;;;;;10.43;1.48;;;;;;;8.74;55.41;97623.06;5117556;28;20043;-46
2022/04/07 08:42:26;;;;;;;6.07;1.30;;;;;;;8.56;56.15;97629.53;5099185;28;20028;-48
2022/04/07 08:44:52;;;;;;;6.22;1.38;;;;;;;8.66;55.19;97644.91;5117542;28;20043;-44
2022/04/07 08:47:20;;;;;;;7.93;1.10;;;;;;;8.75;54.33;97658.63;5117457;28;20024;-44
2022/04/07 08:49:48;;;;;;;8.48;1.05;;;;;;;8.84;53.83;97635.72;5099193;28;20122;-44
2022/04/07 08:52:15;;;;;;;13.25;1.58;;;;;;;9.36;53.39;97637.81;5117819;28;20034;-42
2022/04/07 08:54:42;;;;;;;9.95;1.40;;;;;;;9.41;51.57;97635.16;5098829;28;20031;-44
2022/04/07 08:57:08;;;;;;;4.93;1.48;;;;;;;9.44;52.18;97623.16;5117146;28;20352;-43
2022/04/07 08:59:34;;;;;;;7.78;1.50;;;;;;;8.99;52.17;97661.84;5117016;28;20032;-43
2022/04/07 09:02:02;;;;;;;5.68;1.20;;;;;;;9.25;51.42;97657.56;5116976;28;20353;-43
2022/04/07 09:04:31;;;;;;;8.05;1.10;;;;;;;9.12;51.77;97669.47;5098686;28;20070;-43
2022/04/07 09:06:56;;;;;;;6.20;1.27;;;;;;;9.20;51.66;97674.38;5116365;28;20061;-47
2022/04/07 09:09:22;;;;;;;5.07;1.00;;;;;;;9.25;50.87;97700.41;5117421;28;20438;-50
2022/04/07 09:11:56;;;;;;;5.20;1.50;;;;;;;9.08;51.74;97693.28;5099039;28;20097;-45
2022/04/07 09:14:22;;;;;;;4.05;1.25;;;;;;;8.98;52.23;97713.75;5117543;28;20113;-45
2022/04/07 09:16:55;;;;;;;8.15;1.38;;;;;;;8.81;53.01;97681.75;5116997;28;20030;-45
2022/04/07 09:19:22;;;;;;;8.35;1.35;;;;;;;8.99;52.94;97688.59;5099795;28;20062;-46
2022/04/07 09:22:04;;;;;;;6.72;1.10;;;;;;;9.01;52.64;97697.22;5117992;28;20031;-43
2022/04/07 09:24:29;;;;;;;3.33;1.08;;;;;;;8.93;52.61;97692.28;5099423;28;20356;-47
2022/04/07 09:26:58;;;;;;;5.15;1.10;;;;;;;9.17;52.36;97698.97;5116673;28;20019;-44
2022/04/07 09:29:38;;;;;;;3.72;0.90;;;;;;;9.26;52.18;97700.13;5116212;28;20383;-46
2022/04/07 09:32:04;;;;;;;6.82;1.23;;;;;;;9.23;51.88;97705.19;5116851;28;20126;-45
2022/04/07 09:34:31;;;;;;;9.18;0.90;;;;;;;9.56;51.71;97719.41;5117312;28;20020;-44
2022/04/07 09:37:14;;;;;;;6.32;1.27;;;;;;;9.27;52.11;97733.88;5116960;28;20028;-43
2022/04/07 09:39:40;;;;;;;9.93;1.23;;;;;;;9.35;52.82;97740.66;5116047;28;20106;-45
2022/04/07 09:42:25;;;;;;;8.77;1.27;;;;;;;9.20;51.87;97722.56;5080980;28;20395;-44
2022/04/07 09:44:57;;;;;;;6.38;1.38;;;;;;;9.31;53.18;97734.19;5116201;28;20070;-44
2022/04/07 09:47:33;;;;;;;4.78;1.15;;;;;;;9.30;52.23;97729.88;5116136;28;20083;-45
2022/04/07 09:49:58;;;;;;;7.70;1.58;;;;;;;9.22;52.35;97736.50;5115555;28;20031;-47
2022/04/07 09:52:24;;;;;;;7.10;1.30;;;;;;;9.48;52.01;97756.31;5097455;28;20030;-49
2022/04/07 09:54:51;;;;;;;6.18;1.30;;;;;;;9.66;50.93;97731.03;5097341;28;20032;-44
2022/04/07 09:57:20;;;;;;;6.75;1.27;;;;;;;9.74;51.19;97720.91;5097332;28;20545;-45
2022/04/07 09:59:47;;;;;;;7.95;1.38;;;;;;;10.28;50.35;97756.41;5115359;28;20035;-46
2022/04/07 10:02:15;;;;;;;6.43;1.27;;;;;;;11.27;47.65;97747.75;5115354;28;20343;-44
2022/04/07 10:04:42;;;;;;;5.80;0.93;;;;;;;11.20;47.90;97741.84;5115201;28;20050;-46
2022/04/07 10:07:11;;;;;;;7.57;1.48;;;;;;;11.01;47.55;97758.44;5115855;28;20024;-44
2022/04/07 10:09:40;;;;;;;6.05;1.50;;;;;;;11.12;46.80;97774.56;5115815;28;20031;-43
2022/04/07 10:12:08;;;;;;;9.55;1.30;;;;;;;11.46;45.60;97771.44;5115423;28;20035;-47
2022/04/07 10:14:36;;;;;;;6.07;1.10;;;;;;;12.49;43.65;97759.63;5115318;28;20032;-44
2022/04/07 10:17:02;;;;;;;11.15;1.33;;;;;;;13.91;40.22;97759.19;5115625;28;20470;-44
2022/04/07 10:19:35;;;;;;;4.90;1.60;;;;;;;14.05;40.49;97785.53;5115330;28;20513;-46
2022/04/07 10:22:15;;;;;;;4.03;1.33;;;;;;;14.14;39.04;97765.75;5115295;28;20031;-44
2022/04/07 10:25:03;;;;;;;3.50;0.90;;;;;;;13.40;40.83;97799.19;5115614;28;20032;-43
2022/04/07 10:27:30;;;;;;;4.85;1.33;;;;;;;13.70;40.63;97788.19;5096899;28;20383;-43
2022/04/07 10:30:14;;;;;;;4.07;0.93;;;;;;;13.10;41.20;97763.97;5115411;28;20038;-42
2022/04/07 10:32:44;;;;;;;10.82;1.27;;;;;;;13.98;39.06;97768.84;5115386;28;20032;-44
2022/04/07 10:35:34;;;;;;;6.65;1.25;;;;;;;12.97;41.48;97748.41;5097217;28;20035;-42
2022/04/07 10:38:01;;;;;;;5.88;1.52;;;;;;;13.63;40.25;97790.44;5115694;28;20460;-42
2022/04/07 10:40:33;;;;;;;8.00;1.20;;;;;;;12.59;41.62;97794.59;5114881;28;20031;-44
2022/04/07 10:43:06;;;;;;;4.45;0.98;;;;;;;12.79;42.49;97799.09;5114843;28;20061;-43
2022/04/07 10:45:33;;;;;;;6.82;1.58;;;;;;;13.28;40.27;97796.75;5114790;28;20536;-44
2022/04/07 10:48:24;;;;;;;7.43;1.60;;;;;;;14.49;37.70;97804.31;5114580;28;20459;-42
2022/04/07 10:50:54;;;;;;;5.93;1.40;;;;;;;14.09;38.32;97800.06;5100459;28;20436;-43
2022/04/07 10:53:27;;;;;;;7.50;1.10;;;;;;;13.83;39.29;97811.03;5095925;28;20483;-43
2022/04/07 10:55:57;;;;;;;5.93;1.70;;;;;;;12.79;41.73;97836.00;5095866;28;20046;-50
2022/04/07 10:58:48;;;;;;;6.13;0.93;;;;;;;13.06;39.74;97837.56;5114405;28;20016;-48
2022/04/07 11:01:15;;;;;;;6.47;1.50;;;;;;;12.91;39.58;97824.97;5099655;28;20032;-46
2022/04/07 11:04:01;;;;;;;6.30;1.27;;;;;;;14.42;37.13;97820.03;5114366;28;20031;-49
2022/04/07 11:06:27;;;;;;;5.05;1.40;;;;;;;15.28;34.69;97843.75;5099075;28;20038;-46
2022/04/07 11:09:14;;;;;;;4.30;1.40;;;;;;;14.43;35.20;97851.34;5114099;28;20378;-44
2022/04/07 11:11:55;;;;;;;4.50;1.10;;;;;;;13.49;36.86;97848.75;5082084;28;20102;-41
2022/04/07 11:14:28;;;;;;;7.03;1.20;;;;;;;12.91;38.22;97841.13;5114582;28;20043;-41
2022/04/07 11:16:58;;;;;;;3.53;0.73;;;;;;;12.23;39.95;97847.66;5096243;28;20444;-42
2022/04/07 11:19:50;;;;;;;5.82;1.00;;;;;;;13.27;38.15;97863.34;5095688;28;20027;-41
2022/04/07 11:22:19;;;;;;;7.00;1.20;;;;;;;12.39;39.41;97833.13;5096192;28;20055;-44
2022/04/07 11:24:45;;;;;;;4.38;0.98;;;;;;;12.09;39.92;97851.94;5096340;28;20055;-42
2022/04/07 11:27:33;;;;;;;5.05;0.80;;;;;;;11.87;38.58;97868.28;5096056;28;20188;-42
2022/04/07 11:30:05;;;;;;;5.55;0.93;;;;;;;12.04;38.56;97857.34;5081651;28;20024;-42
2022/04/07 11:32:31;;;;;;;5.78;0.80;;;;;;;11.81;40.04;97892.50;5114307;28;20039;-42
2022/04/07 11:35:00;;;;;;;3.65;1.02;;;;;;;11.49;39.89;97878.41;5114354;28;20028;-43
2022/04/07 11:37:26;;;;;;;6.38;1.25;;;;;;;11.42;41.72;97841.84;5114613;28;20028;-43